Cartersville, Georgia
Current Conditions -  °F | °C
As of 2:53 PM on Sunday 25 Jan 2015 (Local Time) from KVPC Reporting Station
Clear Clear  
Wind Chill: 58°   Ceiling: Unl
Heat Index: 58°   Visibility: 10mi
Dew Point: 30°   Wind: 8mph
Humidity: 35%   Direction: 190°S
Pressure: 29.76"   Gusts: NA
Location:  34.17°N, 84.79°W
Report Text: KVPC 251953Z AUTO 19007KT 150V230 10SM CLR 14/M01 A2976 RMK AO2 SLP073 T01441011
Loading
Personal Weather Stations






























Interactive Weather Map New forecast layout! Learn more

10-Day Weather Forecast

Advertisements
Track Severe Weather on mobile